sensor_id;sensor_type;location;lat;lon;timestamp;P1;durP1;ratioP1;P2;durP2;ratioP2
44189;SDS011;29856;52.144;5.430;2023-06-14T00:01:34;8.15;;;2.80;;
44189;SDS011;29856;52.144;5.430;2023-06-14T00:04:02;14.68;;;4.05;;
44189;SDS011;29856;52.144;5.430;2023-06-14T00:06:28;9.25;;;3.38;;
44189;SDS011;29856;52.144;5.430;2023-06-14T00:08:53;9.48;;;2.78;;
44189;SDS011;29856;52.144;5.430;2023-06-14T00:11:19;6.03;;;2.80;;
44189;SDS011;29856;52.144;5.430;2023-06-14T00:13:45;12.65;;;3.33;;
44189;SDS011;29856;52.144;5.430;2023-06-14T00:16:13;14.70;;;3.00;;
44189;SDS011;29856;52.144;5.430;2023-06-14T00:18:39;6.82;;;2.72;;
44189;SDS011;29856;52.144;5.430;2023-06-14T00:21:05;7.45;;;3.00;;
44189;SDS011;29856;52.144;5.430;2023-06-14T00:23:30;6.03;;;2.67;;
44189;SDS011;29856;52.144;5.430;2023-06-14T00:25:56;5.43;;;3.38;;
44189;SDS011;29856;52.144;5.430;2023-06-14T00:28:21;9.30;;;3.53;;
44189;SDS011;29856;52.144;5.430;2023-06-14T00:30:47;9.68;;;2.88;;
44189;SDS011;29856;52.144;5.430;2023-06-14T00:33:14;6.35;;;2.92;;
44189;SDS011;29856;52.144;5.430;2023-06-14T00:35:39;4.78;;;2.67;;
44189;SDS011;29856;52.144;5.430;2023-06-14T00:38:05;9.45;;;3.58;;
44189;SDS011;29856;52.144;5.430;2023-06-14T00:40:30;12.60;;;3.35;;
44189;SDS011;29856;52.144;5.430;2023-06-14T00:42:56;6.78;;;2.75;;
44189;SDS011;29856;52.144;5.430;2023-06-14T00:45:21;9.07;;;3.45;;
44189;SDS011;29856;52.144;5.430;2023-06-14T00:47:47;5.53;;;2.85;;
44189;SDS011;29856;52.144;5.430;2023-06-14T00:50:14;12.43;;;3.53;;
44189;SDS011;29856;52.144;5.430;2023-06-14T00:52:40;14.90;;;3.47;;
44189;SDS011;29856;52.144;5.430;2023-06-14T00:55:05;3.03;;;2.70;;
44189;SDS011;29856;52.144;5.430;2023-06-14T00:57:31;10.70;;;3.08;;
44189;SDS011;29856;52.144;5.430;2023-06-14T00:59:57;11.85;;;2.78;;
44189;SDS011;29856;52.144;5.430;2023-06-14T01:02:22;9.77;;;2.80;;
44189;SDS011;29856;52.144;5.430;2023-06-14T01:04:48;7.68;;;2.80;;
44189;SDS011;29856;52.144;5.430;2023-06-14T01:15:20;5.28;;;2.50;;
44189;SDS011;29856;52.144;5.430;2023-06-14T01:17:46;8.40;;;2.55;;
44189;SDS011;29856;52.144;5.430;2023-06-14T01:20:15;6.60;;;2.80;;
44189;SDS011;29856;52.144;5.430;2023-06-14T01:22:59;9.57;;;3.15;;
44189;SDS011;29856;52.144;5.430;2023-06-14T01:25:25;9.15;;;2.92;;
44189;SDS011;29856;52.144;5.430;2023-06-14T01:27:51;10.48;;;2.85;;
44189;SDS011;29856;52.144;5.430;2023-06-14T01:30:20;5.28;;;2.55;;
44189;SDS011;29856;52.144;5.430;2023-06-14T01:32:47;12.20;;;2.80;;
44189;SDS011;29856;52.144;5.430;2023-06-14T01:35:14;8.55;;;3.13;;
44189;SDS011;29856;52.144;5.430;2023-06-14T01:37:40;9.90;;;3.10;;
44189;SDS011;29856;52.144;5.430;2023-06-14T01:40:06;6.65;;;2.90;;
44189;SDS011;29856;52.144;5.430;2023-06-14T01:42:34;5.97;;;2.53;;
44189;SDS011;29856;52.144;5.430;2023-06-14T01:45:03;5.93;;;2.92;;
44189;SDS011;29856;52.144;5.430;2023-06-14T01:47:30;6.53;;;2.60;;
44189;SDS011;29856;52.144;5.430;2023-06-14T01:49:57;7.47;;;2.80;;
44189;SDS011;29856;52.144;5.430;2023-06-14T01:52:23;9.25;;;2.90;;
44189;SDS011;29856;52.144;5.430;2023-06-14T01:54:48;13.23;;;3.10;;
44189;SDS011;29856;52.144;5.430;2023-06-14T01:57:14;9.85;;;2.63;;
44189;SDS011;29856;52.144;5.430;2023-06-14T01:59:40;11.88;;;2.90;;
44189;SDS011;29856;52.144;5.430;2023-06-14T02:02:05;8.00;;;2.78;;
44189;SDS011;29856;52.144;5.430;2023-06-14T02:04:31;8.90;;;2.65;;
44189;SDS011;29856;52.144;5.430;2023-06-14T02:06:56;9.60;;;2.75;;
44189;SDS011;29856;52.144;5.430;2023-06-14T02:09:21;6.50;;;3.03;;
44189;SDS011;29856;52.144;5.430;2023-06-14T02:11:47;9.07;;;2.92;;
44189;SDS011;29856;52.144;5.430;2023-06-14T02:14:12;8.43;;;2.88;;
44189;SDS011;29856;52.144;5.430;2023-06-14T02:16:38;9.45;;;2.88;;
44189;SDS011;29856;52.144;5.430;2023-06-14T02:19:03;12.38;;;2.50;;
44189;SDS011;29856;52.144;5.430;2023-06-14T02:21:29;8.32;;;2.60;;
44189;SDS011;29856;52.144;5.430;2023-06-14T02:23:55;9.05;;;2.53;;
44189;SDS011;29856;52.144;5.430;2023-06-14T02:26:20;10.98;;;2.88;;
44189;SDS011;29856;52.144;5.430;2023-06-14T02:28:46;9.05;;;2.88;;
44189;SDS011;29856;52.144;5.430;2023-06-14T02:31:11;7.63;;;3.28;;
44189;SDS011;29856;52.144;5.430;2023-06-14T02:33:36;9.40;;;3.08;;
44189;SDS011;29856;52.144;5.430;2023-06-14T02:36:02;8.93;;;2.88;;
44189;SDS011;29856;52.144;5.430;2023-06-14T02:38:28;8.40;;;2.80;;
44189;SDS011;29856;52.144;5.430;2023-06-14T02:40:53;8.38;;;2.60;;
44189;SDS011;29856;52.144;5.430;2023-06-14T02:43:18;9.30;;;3.00;;
44189;SDS011;29856;52.144;5.430;2023-06-14T02:45:44;10.80;;;3.40;;
44189;SDS011;29856;52.144;5.430;2023-06-14T02:48:09;10.13;;;3.08;;
44189;SDS011;29856;52.144;5.430;2023-06-14T02:50:35;9.52;;;3.03;;
44189;SDS011;29856;52.144;5.430;2023-06-14T02:53:00;16.33;;;3.40;;
44189;SDS011;29856;52.144;5.430;2023-06-14T02:55:26;8.55;;;2.90;;
44189;SDS011;29856;52.144;5.430;2023-06-14T02:57:51;10.70;;;3.05;;
44189;SDS011;29856;52.144;5.430;2023-06-14T03:00:17;10.77;;;2.80;;
44189;SDS011;29856;52.144;5.430;2023-06-14T03:02:42;5.82;;;2.35;;
44189;SDS011;29856;52.144;5.430;2023-06-14T03:05:08;8.63;;;2.88;;
44189;SDS011;29856;52.144;5.430;2023-06-14T03:07:33;10.43;;;3.50;;
44189;SDS011;29856;52.144;5.430;2023-06-14T03:09:59;8.25;;;2.83;;
44189;SDS011;29856;52.144;5.430;2023-06-14T03:12:24;13.23;;;3.40;;
44189;SDS011;29856;52.144;5.430;2023-06-14T03:14:50;9.70;;;2.83;;
44189;SDS011;29856;52.144;5.430;2023-06-14T03:17:15;5.88;;;2.80;;
44189;SDS011;29856;52.144;5.430;2023-06-14T03:19:41;8.10;;;3.22;;
44189;SDS011;29856;52.144;5.430;2023-06-14T03:22:06;10.65;;;3.08;;
44189;SDS011;29856;52.144;5.430;2023-06-14T03:24:33;7.00;;;2.80;;
44189;SDS011;29856;52.144;5.430;2023-06-14T03:26:58;6.45;;;2.50;;
44189;SDS011;29856;52.144;5.430;2023-06-14T03:29:24;8.35;;;2.88;;
44189;SDS011;29856;52.144;5.430;2023-06-14T03:31:59;9.68;;;2.40;;
44189;SDS011;29856;52.144;5.430;2023-06-14T03:34:25;6.47;;;2.85;;
44189;SDS011;29856;52.144;5.430;2023-06-14T03:36:51;7.80;;;2.80;;
44189;SDS011;29856;52.144;5.430;2023-06-14T03:39:17;12.98;;;3.30;;
44189;SDS011;29856;52.144;5.430;2023-06-14T03:41:42;6.38;;;2.65;;
44189;SDS011;29856;52.144;5.430;2023-06-14T03:44:08;9.68;;;2.90;;
44189;SDS011;29856;52.144;5.430;2023-06-14T03:46:33;6.82;;;2.85;;
44189;SDS011;29856;52.144;5.430;2023-06-14T03:48:59;9.70;;;2.97;;
44189;SDS011;29856;52.144;5.430;2023-06-14T03:51:24;8.55;;;2.60;;
44189;SDS011;29856;52.144;5.430;2023-06-14T03:53:49;8.02;;;3.03;;
44189;SDS011;29856;52.144;5.430;2023-06-14T03:56:15;7.18;;;2.95;;
44189;SDS011;29856;52.144;5.430;2023-06-14T03:58:40;5.60;;;2.50;;
44189;SDS011;29856;52.144;5.430;2023-06-14T04:01:06;8.75;;;3.47;;
44189;SDS011;29856;52.144;5.430;2023-06-14T04:03:31;8.40;;;3.00;;
44189;SDS011;29856;52.144;5.430;2023-06-14T04:05:57;3.88;;;2.67;;
44189;SDS011;29856;52.144;5.430;2023-06-14T04:08:22;7.43;;;2.72;;
44189;SDS011;29856;52.144;5.430;2023-06-14T04:10:48;9.75;;;3.22;;
44189;SDS011;29856;52.144;5.430;2023-06-14T04:13:13;9.40;;;2.92;;
44189;SDS011;29856;52.144;5.430;2023-06-14T04:15:39;19.38;;;3.22;;
44189;SDS011;29856;52.144;5.430;2023-06-14T04:18:04;8.63;;;2.95;;
44189;SDS011;29856;52.144;5.430;2023-06-14T04:20:30;8.40;;;2.72;;
44189;SDS011;29856;52.144;5.430;2023-06-14T04:22:56;9.40;;;3.53;;
44189;SDS011;29856;52.144;5.430;2023-06-14T04:25:22;13.20;;;2.92;;
44189;SDS011;29856;52.144;5.430;2023-06-14T04:27:47;8.10;;;2.97;;
44189;SDS011;29856;52.144;5.430;2023-06-14T04:30:12;11.38;;;3.20;;
44189;SDS011;29856;52.144;5.430;2023-06-14T04:32:38;8.82;;;3.10;;
44189;SDS011;29856;52.144;5.430;2023-06-14T04:35:04;15.05;;;2.92;;
44189;SDS011;29856;52.144;5.430;2023-06-14T04:37:31;8.73;;;2.85;;
44189;SDS011;29856;52.144;5.430;2023-06-14T04:39:56;13.15;;;2.80;;
44189;SDS011;29856;52.144;5.430;2023-06-14T04:42:22;11.82;;;2.85;;
44189;SDS011;29856;52.144;5.430;2023-06-14T04:44:48;8.32;;;2.72;;
44189;SDS011;29856;52.144;5.430;2023-06-14T04:47:13;7.88;;;2.80;;
44189;SDS011;29856;52.144;5.430;2023-06-14T04:49:39;8.50;;;2.95;;
44189;SDS011;29856;52.144;5.430;2023-06-14T04:52:04;8.40;;;3.08;;
44189;SDS011;29856;52.144;5.430;2023-06-14T04:54:30;3.25;;;2.45;;
44189;SDS011;29856;52.144;5.430;2023-06-14T04:56:55;10.45;;;2.90;;
44189;SDS011;29856;52.144;5.430;2023-06-14T04:59:21;11.40;;;2.88;;
44189;SDS011;29856;52.144;5.430;2023-06-14T05:01:46;12.63;;;2.90;;
44189;SDS011;29856;52.144;5.430;2023-06-14T05:04:12;5.18;;;2.85;;
44189;SDS011;29856;52.144;5.430;2023-06-14T05:06:37;10.35;;;3.25;;
44189;SDS011;29856;52.144;5.430;2023-06-14T05:09:03;4.70;;;2.83;;
44189;SDS011;29856;52.144;5.430;2023-06-14T05:11:28;10.30;;;2.65;;
44189;SDS011;29856;52.144;5.430;2023-06-14T05:13:54;9.95;;;3.05;;
44189;SDS011;29856;52.144;5.430;2023-06-14T05:16:19;4.97;;;2.83;;
44189;SDS011;29856;52.144;5.430;2023-06-14T05:18:45;8.20;;;3.30;;
44189;SDS011;29856;52.144;5.430;2023-06-14T05:21:11;7.80;;;2.70;;
44189;SDS011;29856;52.144;5.430;2023-06-14T05:23:36;13.60;;;2.90;;
44189;SDS011;29856;52.144;5.430;2023-06-14T05:26:02;6.95;;;3.05;;
44189;SDS011;29856;52.144;5.430;2023-06-14T05:28:27;8.13;;;2.80;;
44189;SDS011;29856;52.144;5.430;2023-06-14T05:30:53;8.18;;;3.17;;
44189;SDS011;29856;52.144;5.430;2023-06-14T05:33:18;5.70;;;2.65;;
44189;SDS011;29856;52.144;5.430;2023-06-14T05:35:43;10.07;;;2.90;;
44189;SDS011;29856;52.144;5.430;2023-06-14T05:38:09;9.00;;;2.60;;
44189;SDS011;29856;52.144;5.430;2023-06-14T05:40:34;11.05;;;3.15;;
44189;SDS011;29856;52.144;5.430;2023-06-14T05:43:00;10.48;;;3.28;;
44189;SDS011;29856;52.144;5.430;2023-06-14T05:45:25;8.13;;;3.00;;
44189;SDS011;29856;52.144;5.430;2023-06-14T05:47:51;6.15;;;3.03;;
44189;SDS011;29856;52.144;5.430;2023-06-14T05:50:17;9.68;;;3.20;;
44189;SDS011;29856;52.144;5.430;2023-06-14T05:52:42;6.40;;;3.45;;
44189;SDS011;29856;52.144;5.430;2023-06-14T05:55:08;8.57;;;3.15;;
44189;SDS011;29856;52.144;5.430;2023-06-14T05:57:34;3.70;;;2.40;;
44189;SDS011;29856;52.144;5.430;2023-06-14T05:59:59;7.05;;;2.90;;
44189;SDS011;29856;52.144;5.430;2023-06-14T06:02:25;6.20;;;2.67;;
44189;SDS011;29856;52.144;5.430;2023-06-14T06:04:50;10.05;;;2.90;;
44189;SDS011;29856;52.144;5.430;2023-06-14T06:07:16;7.47;;;2.90;;
44189;SDS011;29856;52.144;5.430;2023-06-14T06:09:41;6.70;;;2.85;;
44189;SDS011;29856;52.144;5.430;2023-06-14T06:12:07;10.23;;;2.97;;
44189;SDS011;29856;52.144;5.430;2023-06-14T06:14:32;5.63;;;2.45;;
44189;SDS011;29856;52.144;5.430;2023-06-14T06:16:58;9.02;;;3.10;;
44189;SDS011;29856;52.144;5.430;2023-06-14T06:19:23;4.82;;;2.72;;
44189;SDS011;29856;52.144;5.430;2023-06-14T06:21:49;10.77;;;2.58;;
44189;SDS011;29856;52.144;5.430;2023-06-14T06:24:15;10.38;;;2.83;;
44189;SDS011;29856;52.144;5.430;2023-06-14T06:26:41;11.05;;;2.90;;
44189;SDS011;29856;52.144;5.430;2023-06-14T06:29:06;5.78;;;2.47;;
44189;SDS011;29856;52.144;5.430;2023-06-14T06:31:32;9.75;;;2.95;;
44189;SDS011;29856;52.144;5.430;2023-06-14T06:33:57;6.88;;;2.90;;
44189;SDS011;29856;52.144;5.430;2023-06-14T06:36:23;7.45;;;2.55;;
44189;SDS011;29856;52.144;5.430;2023-06-14T06:38:48;10.20;;;2.80;;
44189;SDS011;29856;52.144;5.430;2023-06-14T06:41:14;6.75;;;2.80;;
44189;SDS011;29856;52.144;5.430;2023-06-14T06:43:39;8.30;;;2.85;;
44189;SDS011;29856;52.144;5.430;2023-06-14T06:46:05;9.93;;;3.00;;
44189;SDS011;29856;52.144;5.430;2023-06-14T06:48:30;11.48;;;2.92;;
44189;SDS011;29856;52.144;5.430;2023-06-14T06:50:55;6.50;;;3.05;;
44189;SDS011;29856;52.144;5.430;2023-06-14T06:53:21;12.43;;;3.22;;
44189;SDS011;29856;52.144;5.430;2023-06-14T06:55:46;5.30;;;2.80;;
44189;SDS011;29856;52.144;5.430;2023-06-14T06:58:12;8.70;;;3.20;;
44189;SDS011;29856;52.144;5.430;2023-06-14T07:00:38;10.32;;;3.03;;
44189;SDS011;29856;52.144;5.430;2023-06-14T07:03:04;6.50;;;2.85;;
44189;SDS011;29856;52.144;5.430;2023-06-14T07:05:30;9.70;;;3.22;;
44189;SDS011;29856;52.144;5.430;2023-06-14T07:07:56;9.48;;;2.70;;
44189;SDS011;29856;52.144;5.430;2023-06-14T07:10:21;6.22;;;2.83;;
44189;SDS011;29856;52.144;5.430;2023-06-14T07:12:47;17.95;;;3.75;;
44189;SDS011;29856;52.144;5.430;2023-06-14T07:15:12;9.82;;;2.65;;
44189;SDS011;29856;52.144;5.430;2023-06-14T07:17:38;8.52;;;3.00;;
44189;SDS011;29856;52.144;5.430;2023-06-14T07:20:03;10.30;;;2.47;;
44189;SDS011;29856;52.144;5.430;2023-06-14T07:22:29;4.82;;;2.15;;
44189;SDS011;29856;52.144;5.430;2023-06-14T07:24:55;9.50;;;2.38;;
44189;SDS011;29856;52.144;5.430;2023-06-14T07:27:20;6.55;;;2.30;;
44189;SDS011;29856;52.144;5.430;2023-06-14T07:29:46;3.88;;;2.20;;
44189;SDS011;29856;52.144;5.430;2023-06-14T07:32:11;17.30;;;2.78;;
44189;SDS011;29856;52.144;5.430;2023-06-14T07:34:37;12.07;;;2.50;;
44189;SDS011;29856;52.144;5.430;2023-06-14T07:37:02;10.48;;;2.60;;
44189;SDS011;29856;52.144;5.430;2023-06-14T07:39:28;6.90;;;2.25;;
44189;SDS011;29856;52.144;5.430;2023-06-14T07:41:53;6.47;;;2.25;;
44189;SDS011;29856;52.144;5.430;2023-06-14T07:44:19;8.77;;;2.35;;
44189;SDS011;29856;52.144;5.430;2023-06-14T07:46:44;5.78;;;2.25;;
44189;SDS011;29856;52.144;5.430;2023-06-14T07:49:10;7.90;;;2.40;;
44189;SDS011;29856;52.144;5.430;2023-06-14T07:51:35;5.82;;;1.88;;
44189;SDS011;29856;52.144;5.430;2023-06-14T07:54:01;4.10;;;1.88;;
44189;SDS011;29856;52.144;5.430;2023-06-14T07:56:26;7.28;;;1.98;;
44189;SDS011;29856;52.144;5.430;2023-06-14T07:58:52;7.18;;;2.20;;
44189;SDS011;29856;52.144;5.430;2023-06-14T08:01:17;7.68;;;2.10;;
44189;SDS011;29856;52.144;5.430;2023-06-14T08:03:43;11.23;;;1.90;;
44189;SDS011;29856;52.144;5.430;2023-06-14T08:06:08;6.13;;;1.92;;
44189;SDS011;29856;52.144;5.430;2023-06-14T08:08:34;4.55;;;1.70;;
44189;SDS011;29856;52.144;5.430;2023-06-14T08:11:00;5.05;;;2.13;;
44189;SDS011;29856;52.144;5.430;2023-06-14T08:13:25;4.97;;;2.13;;
44189;SDS011;29856;52.144;5.430;2023-06-14T08:15:51;5.63;;;1.88;;
44189;SDS011;29856;52.144;5.430;2023-06-14T08:18:16;6.50;;;2.13;;
44189;SDS011;29856;52.144;5.430;2023-06-14T08:20:42;6.28;;;2.00;;
44189;SDS011;29856;52.144;5.430;2023-06-14T08:23:07;4.05;;;1.30;;
44189;SDS011;29856;52.144;5.430;2023-06-14T08:25:33;5.53;;;1.90;;
44189;SDS011;29856;52.144;5.430;2023-06-14T08:27:58;4.05;;;1.92;;
44189;SDS011;29856;52.144;5.430;2023-06-14T08:30:24;7.75;;;1.90;;
44189;SDS011;29856;52.144;5.430;2023-06-14T08:32:49;4.97;;;1.85;;
44189;SDS011;29856;52.144;5.430;2023-06-14T08:35:15;7.63;;;2.60;;
44189;SDS011;29856;52.144;5.430;2023-06-14T08:37:40;7.32;;;1.95;;
44189;SDS011;29856;52.144;5.430;2023-06-14T08:40:18;3.35;;;1.65;;
44189;SDS011;29856;52.144;5.430;2023-06-14T08:42:45;2.35;;;1.70;;
44189;SDS011;29856;52.144;5.430;2023-06-14T08:45:12;1.90;;;1.50;;
44189;SDS011;29856;52.144;5.430;2023-06-14T08:47:38;2.88;;;1.70;;
44189;SDS011;29856;52.144;5.430;2023-06-14T08:50:04;4.93;;;1.60;;
44189;SDS011;29856;52.144;5.430;2023-06-14T08:52:30;1.70;;;1.60;;
44189;SDS011;29856;52.144;5.430;2023-06-14T08:55:02;5.72;;;1.65;;
44189;SDS011;29856;52.144;5.430;2023-06-14T08:57:28;2.72;;;1.50;;
44189;SDS011;29856;52.144;5.430;2023-06-14T08:59:54;2.95;;;1.40;;
44189;SDS011;29856;52.144;5.430;2023-06-14T09:02:19;9.43;;;1.52;;
44189;SDS011;29856;52.144;5.430;2023-06-14T09:04:46;3.55;;;1.50;;
44189;SDS011;29856;52.144;5.430;2023-06-14T09:07:11;2.67;;;1.40;;
44189;SDS011;29856;52.144;5.430;2023-06-14T09:09:40;3.17;;;1.83;;
44189;SDS011;29856;52.144;5.430;2023-06-14T09:12:07;5.57;;;1.45;;
44189;SDS011;29856;52.144;5.430;2023-06-14T09:14:34;2.33;;;1.45;;
44189;SDS011;29856;52.144;5.430;2023-06-14T09:17:00;4.22;;;1.45;;
44189;SDS011;29856;52.144;5.430;2023-06-14T09:19:25;1.88;;;1.30;;
44189;SDS011;29856;52.144;5.430;2023-06-14T09:21:52;3.60;;;1.40;;
44189;SDS011;29856;52.144;5.430;2023-06-14T09:24:17;4.40;;;1.73;;
44189;SDS011;29856;52.144;5.430;2023-06-14T09:26:43;2.47;;;1.58;;
44189;SDS011;29856;52.144;5.430;2023-06-14T09:29:11;5.47;;;1.77;;
44189;SDS011;29856;52.144;5.430;2023-06-14T09:31:37;4.10;;;1.55;;
44189;SDS011;29856;52.144;5.430;2023-06-14T09:34:02;2.72;;;1.20;;
44189;SDS011;29856;52.144;5.430;2023-06-14T09:36:28;3.05;;;1.50;;
44189;SDS011;29856;52.144;5.430;2023-06-14T09:41:33;3.72;;;1.60;;
44189;SDS011;29856;52.144;5.430;2023-06-14T09:44:01;6.05;;;1.70;;
44189;SDS011;29856;52.144;5.430;2023-06-14T09:46:27;1.67;;;1.35;;
44189;SDS011;29856;52.144;5.430;2023-06-14T09:48:54;3.35;;;1.75;;
44189;SDS011;29856;52.144;5.430;2023-06-14T09:51:19;6.35;;;1.67;;
44189;SDS011;29856;52.144;5.430;2023-06-14T09:53:50;7.13;;;2.28;;
44189;SDS011;29856;52.144;5.430;2023-06-14T09:56:29;6.22;;;1.90;;
44189;SDS011;29856;52.144;5.430;2023-06-14T09:58:59;7.38;;;1.60;;
44189;SDS011;29856;52.144;5.430;2023-06-14T10:01:27;2.22;;;1.52;;
44189;SDS011;29856;52.144;5.430;2023-06-14T10:04:05;6.38;;;1.50;;
44189;SDS011;29856;52.144;5.430;2023-06-14T10:06:31;2.28;;;1.40;;
44189;SDS011;29856;52.144;5.430;2023-06-14T10:09:00;2.42;;;1.38;;
44189;SDS011;29856;52.144;5.430;2023-06-14T10:11:28;4.75;;;1.75;;
44189;SDS011;29856;52.144;5.430;2023-06-14T10:13:57;3.78;;;1.45;;
44189;SDS011;29856;52.144;5.430;2023-06-14T10:21:57;4.25;;;1.50;;
44189;SDS011;29856;52.144;5.430;2023-06-14T10:24:32;2.28;;;1.83;;
44189;SDS011;29856;52.144;5.430;2023-06-14T10:27:02;2.85;;;1.52;;
44189;SDS011;29856;52.144;5.430;2023-06-14T10:29:28;4.43;;;1.63;;
44189;SDS011;29856;52.144;5.430;2023-06-14T10:31:58;6.03;;;1.70;;
44189;SDS011;29856;52.144;5.430;2023-06-14T10:34:24;4.47;;;1.67;;
44189;SDS011;29856;52.144;5.430;2023-06-14T10:37:24;3.58;;;1.40;;
44189;SDS011;29856;52.144;5.430;2023-06-14T10:39:44;2.67;;;1.55;;
44189;SDS011;29856;52.144;5.430;2023-06-14T10:42:10;5.13;;;1.77;;
44189;SDS011;29856;52.144;5.430;2023-06-14T10:44:39;4.68;;;1.80;;
44189;SDS011;29856;52.144;5.430;2023-06-14T10:47:09;3.78;;;1.70;;
44189;SDS011;29856;52.144;5.430;2023-06-14T10:49:42;2.00;;;1.80;;
44189;SDS011;29856;52.144;5.430;2023-06-14T10:52:15;4.45;;;1.52;;
44189;SDS011;29856;52.144;5.430;2023-06-14T10:54:54;3.28;;;1.63;;
44189;SDS011;29856;52.144;5.430;2023-06-14T10:57:27;3.80;;;1.90;;
44189;SDS011;29856;52.144;5.430;2023-06-14T10:59:53;5.22;;;1.30;;
44189;SDS011;29856;52.144;5.430;2023-06-14T11:05:03;3.35;;;1.42;;
44189;SDS011;29856;52.144;5.430;2023-06-14T11:07:41;3.90;;;1.42;;
44189;SDS011;29856;52.144;5.430;2023-06-14T11:10:37;3.25;;;1.75;;
44189;SDS011;29856;52.144;5.430;2023-06-14T11:13:02;12.60;;;1.87;;
44189;SDS011;29856;52.144;5.430;2023-06-14T11:15:29;10.60;;;1.92;;
44189;SDS011;29856;52.144;5.430;2023-06-14T11:17:55;4.53;;;1.45;;
44189;SDS011;29856;52.144;5.430;2023-06-14T11:20:20;20.95;;;3.08;;
44189;SDS011;29856;52.144;5.430;2023-06-14T11:22:50;4.50;;;1.75;;
44189;SDS011;29856;52.144;5.430;2023-06-14T11:25:16;4.85;;;1.30;;
44189;SDS011;29856;52.144;5.430;2023-06-14T11:27:42;2.22;;;1.45;;
44189;SDS011;29856;52.144;5.430;2023-06-14T11:30:08;7.07;;;2.00;;
44189;SDS011;29856;52.144;5.430;2023-06-14T11:32:34;8.60;;;1.83;;
44189;SDS011;29856;52.144;5.430;2023-06-14T11:35:00;8.98;;;1.98;;
44189;SDS011;29856;52.144;5.430;2023-06-14T11:37:28;4.75;;;1.98;;
44189;SDS011;29856;52.144;5.430;2023-06-14T11:39:55;3.08;;;1.33;;
44189;SDS011;29856;52.144;5.430;2023-06-14T11:42:21;2.65;;;1.40;;
44189;SDS011;29856;52.144;5.430;2023-06-14T11:44:47;3.63;;;1.63;;
44189;SDS011;29856;52.144;5.430;2023-06-14T11:47:12;2.78;;;1.48;;
44189;SDS011;29856;52.144;5.430;2023-06-14T11:49:38;4.35;;;1.63;;
44189;SDS011;29856;52.144;5.430;2023-06-14T11:52:03;6.30;;;1.80;;
44189;SDS011;29856;52.144;5.430;2023-06-14T11:54:29;3.75;;;1.50;;
44189;SDS011;29856;52.144;5.430;2023-06-14T11:56:55;5.88;;;1.90;;
44189;SDS011;29856;52.144;5.430;2023-06-14T11:59:20;9.95;;;1.75;;
44189;SDS011;29856;52.144;5.430;2023-06-14T12:01:47;2.72;;;1.38;;
44189;SDS011;29856;52.144;5.430;2023-06-14T12:04:13;2.78;;;1.30;;
44189;SDS011;29856;52.144;5.430;2023-06-14T12:06:38;3.67;;;1.40;;
44189;SDS011;29856;52.144;5.430;2023-06-14T12:09:04;7.05;;;1.38;;
44189;SDS011;29856;52.144;5.430;2023-06-14T12:11:32;1.58;;;1.30;;
44189;SDS011;29856;52.144;5.430;2023-06-14T12:13:58;5.45;;;1.40;;
44189;SDS011;29856;52.144;5.430;2023-06-14T12:16:29;6.15;;;1.30;;
44189;SDS011;29856;52.144;5.430;2023-06-14T12:18:56;2.72;;;1.50;;
44189;SDS011;29856;52.144;5.430;2023-06-14T12:21:24;5.13;;;1.42;;
44189;SDS011;29856;52.144;5.430;2023-06-14T12:23:51;1.55;;;1.30;;
44189;SDS011;29856;52.144;5.430;2023-06-14T12:26:18;6.85;;;1.70;;
44189;SDS011;29856;52.144;5.430;2023-06-14T12:28:44;2.35;;;1.52;;
44189;SDS011;29856;52.144;5.430;2023-06-14T12:31:11;3.20;;;1.50;;
44189;SDS011;29856;52.144;5.430;2023-06-14T12:33:37;3.85;;;1.63;;
44189;SDS011;29856;52.144;5.430;2023-06-14T12:36:04;1.70;;;1.60;;
44189;SDS011;29856;52.144;5.430;2023-06-14T12:38:30;7.45;;;1.80;;
44189;SDS011;29856;52.144;5.430;2023-06-14T12:40:55;10.13;;;2.17;;
44189;SDS011;29856;52.144;5.430;2023-06-14T12:43:21;5.70;;;1.75;;
44189;SDS011;29856;52.144;5.430;2023-06-14T12:45:46;5.15;;;1.30;;
44189;SDS011;29856;52.144;5.430;2023-06-14T12:48:12;5.07;;;1.65;;
44189;SDS011;29856;52.144;5.430;2023-06-14T12:50:37;3.97;;;1.60;;
44189;SDS011;29856;52.144;5.430;2023-06-14T12:53:03;1.48;;;1.20;;
44189;SDS011;29856;52.144;5.430;2023-06-14T12:55:28;5.07;;;1.35;;
44189;SDS011;29856;52.144;5.430;2023-06-14T12:57:54;6.82;;;1.52;;
44189;SDS011;29856;52.144;5.430;2023-06-14T13:00:19;6.55;;;2.08;;
44189;SDS011;29856;52.144;5.430;2023-06-14T13:02:45;4.90;;;1.50;;
44189;SDS011;29856;52.144;5.430;2023-06-14T13:05:10;3.47;;;1.60;;
44189;SDS011;29856;52.144;5.430;2023-06-14T13:07:36;4.47;;;1.33;;
44189;SDS011;29856;52.144;5.430;2023-06-14T13:10:01;4.97;;;1.50;;
44189;SDS011;29856;52.144;5.430;2023-06-14T13:12:27;2.75;;;1.40;;
44189;SDS011;29856;52.144;5.430;2023-06-14T13:14:53;5.20;;;1.52;;
44189;SDS011;29856;52.144;5.430;2023-06-14T13:17:18;2.95;;;1.80;;
44189;SDS011;29856;52.144;5.430;2023-06-14T13:19:44;1.85;;;1.60;;
44189;SDS011;29856;52.144;5.430;2023-06-14T13:22:09;2.30;;;1.48;;
44189;SDS011;29856;52.144;5.430;2023-06-14T13:24:34;4.20;;;1.58;;
44189;SDS011;29856;52.144;5.430;2023-06-14T13:27:00;7.63;;;1.50;;
44189;SDS011;29856;52.144;5.430;2023-06-14T13:29:26;5.72;;;1.40;;
44189;SDS011;29856;52.144;5.430;2023-06-14T13:31:52;7.53;;;1.83;;
44189;SDS011;29856;52.144;5.430;2023-06-14T13:34:18;3.00;;;1.65;;
44189;SDS011;29856;52.144;5.430;2023-06-14T13:36:44;5.53;;;1.50;;
44189;SDS011;29856;52.144;5.430;2023-06-14T13:39:09;5.47;;;1.48;;
44189;SDS011;29856;52.144;5.430;2023-06-14T13:41:35;2.78;;;1.60;;
44189;SDS011;29856;52.144;5.430;2023-06-14T13:44:00;6.15;;;1.65;;
44189;SDS011;29856;52.144;5.430;2023-06-14T13:46:26;2.90;;;1.30;;
44189;SDS011;29856;52.144;5.430;2023-06-14T13:48:52;4.18;;;1.50;;
44189;SDS011;29856;52.144;5.430;2023-06-14T13:51:17;2.88;;;1.42;;
44189;SDS011;29856;52.144;5.430;2023-06-14T13:53:45;3.80;;;1.63;;
44189;SDS011;29856;52.144;5.430;2023-06-14T13:56:11;3.00;;;1.42;;
44189;SDS011;29856;52.144;5.430;2023-06-14T13:58:37;3.03;;;1.50;;
44189;SDS011;29856;52.144;5.430;2023-06-14T14:01:03;4.03;;;1.17;;
44189;SDS011;29856;52.144;5.430;2023-06-14T14:03:28;4.53;;;1.35;;
44189;SDS011;29856;52.144;5.430;2023-06-14T14:05:54;3.17;;;1.50;;
44189;SDS011;29856;52.144;5.430;2023-06-14T14:08:19;2.40;;;1.27;;
44189;SDS011;29856;52.144;5.430;2023-06-14T14:10:45;5.40;;;1.48;;
44189;SDS011;29856;52.144;5.430;2023-06-14T14:13:10;4.18;;;1.38;;
44189;SDS011;29856;52.144;5.430;2023-06-14T14:15:35;1.60;;;1.40;;
44189;SDS011;29856;52.144;5.430;2023-06-14T14:18:01;3.70;;;1.05;;
44189;SDS011;29856;52.144;5.430;2023-06-14T14:20:27;2.50;;;1.25;;
44189;SDS011;29856;52.144;5.430;2023-06-14T14:22:54;4.70;;;1.20;;
44189;SDS011;29856;52.144;5.430;2023-06-14T14:25:20;1.95;;;1.40;;
44189;SDS011;29856;52.144;5.430;2023-06-14T14:27:45;2.47;;;1.20;;
44189;SDS011;29856;52.144;5.430;2023-06-14T14:30:11;6.03;;;1.00;;
44189;SDS011;29856;52.144;5.430;2023-06-14T14:32:36;3.28;;;1.30;;
44189;SDS011;29856;52.144;5.430;2023-06-14T14:35:02;5.45;;;1.10;;
44189;SDS011;29856;52.144;5.430;2023-06-14T14:37:28;2.97;;;1.10;;
44189;SDS011;29856;52.144;5.430;2023-06-14T14:39:53;8.88;;;1.42;;
44189;SDS011;29856;52.144;5.430;2023-06-14T14:42:18;4.55;;;1.60;;
44189;SDS011;29856;52.144;5.430;2023-06-14T14:44:44;6.43;;;1.50;;
44189;SDS011;29856;52.144;5.430;2023-06-14T14:47:09;5.88;;;1.17;;
44189;SDS011;29856;52.144;5.430;2023-06-14T14:49:35;5.10;;;1.10;;
44189;SDS011;29856;52.144;5.430;2023-06-14T14:52:00;2.33;;;1.20;;
44189;SDS011;29856;52.144;5.430;2023-06-14T14:54:26;3.53;;;1.35;;
44189;SDS011;29856;52.144;5.430;2023-06-14T14:56:51;4.13;;;1.08;;
44189;SDS011;29856;52.144;5.430;2023-06-14T14:59:17;3.67;;;1.48;;